Time;durP1;ratioP1;P1;durP2;ratioP2;P2;SDS_P1;SDS_P2;PMS_P1;PMS_P2;Temp;Humidity;BMP_temperature;BMP_pressure;BME280_temperature;BME280_humidity;BME280_pressure;Samples;Min_cycle;Max_cycle;Signal;HPM_P1;HPM_P2
2023/09/07 00:00:11;;;;;;;3.22;2.90;;;;;;;21.65;100.00;101177.91;5049359;28;20599;-51
2023/09/07 00:02:37;;;;;;;3.83;2.28;;;;;;;21.65;100.00;101158.19;5049901;28;20175;-50
2023/09/07 00:05:03;;;;;;;5.20;3.42;;;;;;;21.69;100.00;101160.16;5047774;28;20479;-50
2023/09/07 00:07:29;;;;;;;4.97;2.88;;;;;;;21.56;100.00;101158.63;5047168;28;20446;-49
2023/09/07 00:09:54;;;;;;;4.72;2.55;;;;;;;21.48;100.00;101161.75;5052165;28;20059;-52
2023/09/07 00:12:20;;;;;;;5.05;2.40;;;;;;;21.41;100.00;101155.69;5052924;28;20326;-50
2023/09/07 00:14:46;;;;;;;3.53;2.47;;;;;;;21.33;100.00;101156.09;5045191;28;20082;-50
2023/09/07 00:17:11;;;;;;;6.03;3.05;;;;;;;21.29;100.00;101152.22;5052598;28;20052;-51
2023/09/07 00:19:36;;;;;;;6.15;3.72;;;;;;;21.28;100.00;101154.13;5050871;28;20031;-49
2023/09/07 00:22:03;;;;;;;4.78;2.75;;;;;;;21.24;100.00;101150.28;5049526;28;20264;-47
2023/09/07 00:24:31;;;;;;;4.15;2.47;;;;;;;21.22;100.00;101160.50;5049624;28;20130;-52
2023/09/07 00:26:56;;;;;;;3.55;3.08;;;;;;;21.27;100.00;101159.75;5051351;28;20033;-47
2023/09/07 00:29:22;;;;;;;3.92;2.67;;;;;;;21.37;100.00;101156.41;5049542;28;20032;-49
2023/09/07 00:31:47;;;;;;;3.22;2.25;;;;;;;21.46;100.00;101141.47;5050218;28;20059;-50
2023/09/07 00:34:12;;;;;;;2.83;2.63;;;;;;;21.55;100.00;101146.19;5051481;28;20104;-48
2023/09/07 00:36:38;;;;;;;4.35;2.58;;;;;;;21.53;100.00;101145.63;5047214;28;20174;-49
2023/09/07 00:39:03;;;;;;;5.97;2.90;;;;;;;21.46;100.00;101158.47;5051345;28;20037;-47
2023/09/07 00:41:28;;;;;;;3.15;2.67;;;;;;;21.50;100.00;101164.19;5062961;28;20135;-48
2023/09/07 00:43:54;;;;;;;6.03;3.30;;;;;;;21.55;100.00;101148.06;5047005;28;20040;-51
2023/09/07 00:46:20;;;;;;;3.00;2.80;;;;;;;;;;5049919;28;20490;-47
2023/09/07 00:48:46;;;;;;;4.80;2.97;;;;;;;21.50;100.00;101156.94;5049412;28;20066;-49
2023/09/07 00:51:11;;;;;;;4.88;3.25;;;;;;;21.45;100.00;101162.25;5053680;28;20159;-50
2023/09/07 00:53:37;;;;;;;3.13;2.78;;;;;;;21.37;100.00;101159.09;5051561;28;20032;-51
2023/09/07 00:56:03;;;;;;;7.20;3.60;;;;;;;21.32;100.00;101160.66;5053226;28;20032;-52
2023/09/07 00:58:29;;;;;;;6.38;4.13;;;;;;;21.26;100.00;101160.81;5055592;28;20582;-51
2023/09/07 01:00:55;;;;;;;2.40;1.98;;;;;;;21.17;100.00;101154.19;5054532;28;20028;-49
2023/09/07 01:03:20;;;;;;;3.03;2.58;;;;;;;21.02;100.00;101160.19;5052957;28;20035;-50
2023/09/07 01:06:13;;;;;;;7.68;3.35;;;;;;;20.95;100.00;101168.41;5059295;28;20382;-50
2023/09/07 01:08:48;;;;;;;3.70;3.35;;;;;;;20.83;100.00;101162.25;5054776;28;20106;-51
2023/09/07 01:11:17;;;;;;;2.50;2.30;;;;;;;20.85;100.00;101166.34;5054075;28;20485;-50
2023/09/07 01:13:43;;;;;;;3.75;2.70;;;;;;;20.85;100.00;101169.03;5054685;28;20131;-51
2023/09/07 01:16:12;;;;;;;5.30;4.00;;;;;;;20.78;100.00;101163.00;5051560;28;20050;-50
2023/09/07 01:18:39;;;;;;;3.92;3.63;;;;;;;20.77;100.00;101155.16;5059659;28;20482;-51
2023/09/07 01:21:08;;;;;;;4.90;3.63;;;;;;;20.70;100.00;101147.19;5052692;28;20041;-47
2023/09/07 01:23:37;;;;;;;2.58;2.38;;;;;;;20.61;100.00;101152.19;5051659;28;20403;-47
2023/09/07 01:26:05;;;;;;;7.00;4.20;;;;;;;20.59;100.00;101158.88;5055987;28;20036;-51
2023/09/07 01:28:30;;;;;;;2.97;2.78;;;;;;;20.58;100.00;101152.66;5055901;28;20033;-49
2023/09/07 01:30:57;;;;;;;2.85;2.60;;;;;;;20.53;100.00;101155.22;5053274;28;20047;-49
2023/09/07 01:33:22;;;;;;;3.50;2.65;;;;;;;20.56;100.00;101165.56;5051912;28;20035;-49
2023/09/07 01:35:48;;;;;;;4.30;2.85;;;;;;;20.51;100.00;101151.97;5058961;28;20103;-49
2023/09/07 01:38:13;;;;;;;2.65;2.40;;;;;;;20.47;100.00;101153.47;5057469;28;20404;-51
2023/09/07 01:40:38;;;;;;;8.45;3.60;;;;;;;20.45;100.00;101144.84;5050571;28;20042;-51
2023/09/07 01:43:03;;;;;;;4.32;2.45;;;;;;;20.41;100.00;101149.06;5052416;28;20494;-48
2023/09/07 01:45:29;;;;;;;5.28;2.85;;;;;;;20.33;100.00;101146.75;5051423;28;20124;-48
2023/09/07 01:47:54;;;;;;;4.20;3.58;;;;;;;20.29;100.00;101148.28;5058590;28;20508;-52
2023/09/07 01:50:19;;;;;;;3.88;3.58;;;;;;;20.19;100.00;101138.16;5052019;28;20202;-50
2023/09/07 01:52:51;;;;;;;5.20;3.90;;;;;;;20.13;100.00;101139.09;5051229;28;20571;-51
2023/09/07 01:55:16;;;;;;;3.50;3.17;;;;;;;20.09;100.00;101129.88;5060110;28;20407;-46
2023/09/07 01:57:42;;;;;;;3.33;2.63;;;;;;;19.91;100.00;101126.28;5057656;28;20086;-46
2023/09/07 02:00:07;;;;;;;3.72;2.65;;;;;;;19.86;100.00;101122.66;5053789;28;20110;-48
2023/09/07 02:02:33;;;;;;;5.20;3.75;;;;;;;19.86;100.00;101112.72;5048574;28;20162;-50
2023/09/07 02:04:58;;;;;;;4.03;3.33;;;;;;;19.90;100.00;101110.34;5054486;28;20047;-47
2023/09/07 02:07:23;;;;;;;5.82;3.25;;;;;;;19.87;100.00;101110.84;5052588;28;20527;-46
2023/09/07 02:09:49;;;;;;;3.63;3.33;;;;;;;19.87;100.00;101108.97;5050392;28;20393;-52
2023/09/07 02:12:14;;;;;;;3.65;3.10;;;;;;;19.83;100.00;101113.19;5054582;28;20349;-50
2023/09/07 02:14:39;;;;;;;4.75;3.30;;;;;;;19.65;100.00;101103.38;5052871;28;20029;-48
2023/09/07 02:17:05;;;;;;;3.08;2.58;;;;;;;19.58;100.00;101102.66;5052841;28;20029;-46
2023/09/07 02:19:30;;;;;;;3.67;3.45;;;;;;;19.51;100.00;101110.03;5053395;28;20520;-48
2023/09/07 02:21:55;;;;;;;2.92;2.67;;;;;;;19.52;100.00;101106.31;5057680;28;20083;-51
2023/09/07 02:24:21;;;;;;;3.83;3.40;;;;;;;19.53;100.00;101116.00;5053275;28;20028;-50
2023/09/07 02:26:46;;;;;;;4.15;3.33;;;;;;;19.47;100.00;101117.75;5057833;28;20032;-47
2023/09/07 02:29:12;;;;;;;5.32;3.10;;;;;;;19.44;100.00;101122.78;5068639;28;20037;-50
2023/09/07 02:31:39;;;;;;;2.90;2.70;;;;;;;19.37;100.00;101121.03;5045939;28;20160;-46
2023/09/07 02:34:04;;;;;;;2.85;2.65;;;;;;;19.35;100.00;101120.44;5057789;28;20039;-47
2023/09/07 02:36:29;;;;;;;3.97;3.25;;;;;;;19.36;100.00;101130.16;5058694;28;20041;-52
2023/09/07 02:38:55;;;;;;;3.28;2.85;;;;;;;19.32;100.00;101122.78;5047424;28;20025;-46
2023/09/07 02:41:20;;;;;;;4.00;3.60;;;;;;;19.36;100.00;101122.09;5062425;28;20423;-51
2023/09/07 02:43:45;;;;;;;4.70;3.80;;;;;;;19.36;100.00;101122.09;5053828;28;20041;-48
2023/09/07 02:46:11;;;;;;;4.13;3.35;;;;;;;19.30;100.00;101120.31;5054798;28;20029;-50
2023/09/07 02:48:36;;;;;;;4.65;4.15;;;;;;;19.31;100.00;101119.28;5054693;28;20032;-48
2023/09/07 02:51:01;;;;;;;7.07;3.35;;;;;;;19.32;100.00;101120.91;5070207;28;20128;-50
2023/09/07 02:53:27;;;;;;;5.20;4.07;;;;;;;19.24;100.00;101113.19;5058305;28;20782;-50
2023/09/07 02:55:52;;;;;;;2.83;2.63;;;;;;;19.18;100.00;101108.78;5056016;28;20523;-49
2023/09/07 02:58:18;;;;;;;4.38;3.67;;;;;;;19.12;100.00;101112.38;5050448;28;20033;-49
2023/09/07 03:00:44;;;;;;;3.55;3.17;;;;;;;19.08;100.00;101111.22;5053279;28;20040;-47
2023/09/07 03:03:11;;;;;;;4.80;3.75;;;;;;;19.04;100.00;101102.78;5049153;28;20048;-47
2023/09/07 03:05:39;;;;;;;5.80;4.07;;;;;;;19.03;100.00;101106.53;5049686;28;20033;-50
2023/09/07 03:08:04;;;;;;;2.95;2.75;;;;;;;19.05;100.00;101108.97;5054091;28;20105;-49
2023/09/07 03:10:29;;;;;;;4.10;3.38;;;;;;;19.11;100.00;101105.38;5062536;28;20147;-48
2023/09/07 03:12:55;;;;;;;4.78;3.70;;;;;;;19.19;100.00;101102.34;5058982;28;20130;-50
2023/09/07 03:15:20;;;;;;;4.88;3.97;;;;;;;19.18;100.00;101101.50;5055215;28;20039;-47
2023/09/07 03:17:45;;;;;;;4.38;3.97;;;;;;;19.14;100.00;101094.16;5057036;28;20060;-48
2023/09/07 03:20:14;;;;;;;4.53;4.05;;;;;;;19.11;100.00;101095.44;5051457;28;20059;-48
2023/09/07 03:22:44;;;;;;;5.38;4.78;;;;;;;19.09;100.00;101099.41;5049584;28;20036;-48
2023/09/07 03:25:09;;;;;;;5.53;5.03;;;;;;;19.12;100.00;101090.88;5050576;28;20029;-51
2023/09/07 03:27:35;;;;;;;5.10;4.40;;;;;;;19.11;100.00;101092.75;5048311;28;20031;-47
2023/09/07 03:30:01;;;;;;;9.85;6.93;;;;;;;19.11;100.00;101092.75;5055431;28;20074;-48
2023/09/07 03:32:31;;;;;;;9.50;6.43;;;;;;;19.09;100.00;101096.72;5057979;28;20053;-50
2023/09/07 03:34:57;;;;;;;8.80;5.97;;;;;;;19.10;100.00;101096.50;5048957;28;20389;-53
2023/09/07 03:37:22;;;;;;;5.80;5.28;;;;;;;18.98;100.00;101089.47;5057668;28;20031;-49
2023/09/07 03:39:47;;;;;;;6.40;5.05;;;;;;;18.83;100.00;101090.72;5049206;28;20060;-49
2023/09/07 03:42:14;;;;;;;8.02;5.38;;;;;;;18.83;100.00;101093.41;5050230;28;20052;-47
2023/09/07 03:44:39;;;;;;;9.68;5.65;;;;;;;18.90;100.00;101085.25;5056906;28;20171;-50
2023/09/07 03:47:05;;;;;;;7.88;6.13;;;;;;;18.91;100.00;101081.50;5053140;28;20032;-53
2023/09/07 03:49:30;;;;;;;7.10;6.10;;;;;;;18.92;100.00;101080.44;5052532;28;20093;-52
2023/09/07 03:51:56;;;;;;;10.88;5.28;;;;;;;18.91;100.00;101085.00;5047842;28;20036;-52
2023/09/07 03:54:21;;;;;;;6.47;5.30;;;;;;;18.88;100.00;101084.66;5052443;28;20396;-48
2023/09/07 03:56:46;;;;;;;8.35;5.65;;;;;;;18.89;100.00;101080.91;5055465;28;20031;-49
2023/09/07 03:59:11;;;;;;;9.85;6.82;;;;;;;18.88;100.00;101079.28;5046192;28;20032;-50
2023/09/07 04:01:37;;;;;;;8.63;6.28;;;;;;;18.82;100.00;101075.66;5059630;28;20029;-49
2023/09/07 04:04:02;;;;;;;7.05;5.45;;;;;;;18.86;100.00;101081.38;5055211;28;20103;-52
2023/09/07 04:06:28;;;;;;;9.45;6.10;;;;;;;18.89;100.00;101070.97;5051848;28;20490;-51
2023/09/07 04:08:53;;;;;;;10.35;7.50;;;;;;;18.90;100.00;101074.50;5051592;28;20036;-52
2023/09/07 04:11:18;;;;;;;9.57;7.63;;;;;;;18.90;100.00;101066.44;5052468;28;20067;-53
2023/09/07 04:13:44;;;;;;;9.93;6.80;;;;;;;18.90;100.00;101064.56;5052385;28;20054;-49
2023/09/07 04:16:10;;;;;;;10.27;8.07;;;;;;;18.85;100.00;101074.38;5056494;28;20037;-50
2023/09/07 04:18:35;;;;;;;11.30;6.95;;;;;;;18.86;100.00;101076.00;5050053;28;20044;-46
2023/09/07 04:21:07;;;;;;;8.40;7.25;;;;;;;18.85;100.00;101056.38;5049087;28;20524;-48
2023/09/07 04:23:34;;;;;;;9.25;7.18;;;;;;;18.92;100.00;101056.25;5044606;28;20032;-46
2023/09/07 04:26:11;;;;;;;10.02;8.40;;;;;;;18.90;100.00;101050.31;5054166;28;20071;-50
2023/09/07 04:28:37;;;;;;;14.23;8.90;;;;;;;18.88;100.00;101047.84;5055686;28;20028;-49
2023/09/07 04:31:03;;;;;;;10.57;8.93;;;;;;;18.83;100.00;101061.16;5059043;28;20213;-46
2023/09/07 04:33:32;;;;;;;10.73;9.05;;;;;;;18.83;100.00;101061.16;5055324;28;20143;-48
2023/09/07 04:36:13;;;;;;;11.45;8.60;;;;;;;18.84;100.00;101059.28;5061499;28;20103;-48
2023/09/07 04:38:40;;;;;;;13.20;9.68;;;;;;;18.84;100.00;101046.66;5052525;28;20040;-48
2023/09/07 04:41:10;;;;;;;12.43;8.18;;;;;;;18.80;100.00;101050.88;5056788;28;20033;-49
2023/09/07 04:43:37;;;;;;;10.20;8.32;;;;;;;18.76;100.00;101047.00;5058830;28;20041;-48
2023/09/07 04:46:03;;;;;;;10.32;8.60;;;;;;;18.75;100.00;101050.75;5061088;28;20031;-50
2023/09/07 04:48:28;;;;;;;12.10;8.50;;;;;;;18.75;100.00;101042.69;5058409;28;20043;-48
2023/09/07 04:51:06;;;;;;;11.90;8.63;;;;;;;18.80;100.00;101050.06;5061286;28;20378;-46
2023/09/07 04:53:34;;;;;;;11.90;9.23;;;;;;;18.83;100.00;101045.03;5053330;28;20402;-52
2023/09/07 04:56:00;;;;;;;9.13;7.97;;;;;;;18.86;100.00;101038.38;5058019;28;20037;-54
2023/09/07 04:58:26;;;;;;;11.27;8.93;;;;;;;18.73;100.00;101042.91;5051139;28;20614;-50
2023/09/07 05:00:51;;;;;;;9.70;8.05;;;;;;;18.74;100.00;101041.03;5053768;28;20093;-51
2023/09/07 05:03:17;;;;;;;8.05;6.97;;;;;;;18.72;100.00;101040.44;5055205;28;20057;-49
2023/09/07 05:05:43;;;;;;;9.82;7.50;;;;;;;18.68;100.00;101045.44;5066866;28;20032;-52
2023/09/07 05:08:09;;;;;;;9.15;7.63;;;;;;;18.63;100.00;101039.16;5063494;28;20059;-52
2023/09/07 05:10:35;;;;;;;12.48;8.10;;;;;;;18.56;100.00;101047.31;5057588;28;20124;-53
2023/09/07 05:13:00;;;;;;;9.60;8.30;;;;;;;18.49;100.00;101055.47;5052033;28;20074;-51
2023/09/07 05:15:26;;;;;;;12.85;10.50;;;;;;;18.49;100.00;101054.66;5060550;28;20035;-46
2023/09/07 05:17:52;;;;;;;10.95;8.90;;;;;;;18.52;100.00;101052.31;5057246;28;20689;-49
2023/09/07 05:20:17;;;;;;;12.77;9.35;;;;;;;18.49;100.00;101054.66;5057889;28;20054;-53
2023/09/07 05:22:43;;;;;;;13.13;10.32;;;;;;;18.53;100.00;101051.28;5060608;28;20028;-50
2023/09/07 05:25:08;;;;;;;10.48;9.38;;;;;;;18.51;100.00;101049.88;5057153;28;20036;-52
2023/09/07 05:27:35;;;;;;;12.35;9.80;;;;;;;18.55;100.00;101047.53;5056351;28;20032;-51
2023/09/07 05:30:00;;;;;;;10.32;9.02;;;;;;;18.49;100.00;101058.16;5052903;28;20028;-52
2023/09/07 05:32:26;;;;;;;12.10;9.77;;;;;;;18.47;100.00;101052.19;5052254;28;20047;-51
2023/09/07 05:34:51;;;;;;;9.32;7.57;;;;;;;18.52;100.00;101054.19;5052181;28;20029;-54
2023/09/07 05:37:16;;;;;;;9.57;8.57;;;;;;;18.58;100.00;101057.81;5053025;28;20111;-49
2023/09/07 05:39:41;;;;;;;9.65;8.18;;;;;;;18.54;100.00;101052.09;5053872;28;20112;-52
2023/09/07 05:42:07;;;;;;;9.80;8.35;;;;;;;18.49;100.00;101058.16;5045434;28;20062;-50
2023/09/07 05:44:32;;;;;;;10.15;8.95;;;;;;;18.51;100.00;101064.13;5056185;28;20025;-54
2023/09/07 05:46:58;;;;;;;11.10;8.52;;;;;;;18.48;100.00;101059.22;5050928;28;20033;-52
2023/09/07 05:49:23;;;;;;;11.65;9.05;;;;;;;18.50;100.00;101059.78;5049460;28;20229;-51
2023/09/07 05:51:49;;;;;;;11.60;8.75;;;;;;;18.56;100.00;101055.38;5056050;28;20067;-50
2023/09/07 05:54:14;;;;;;;11.02;9.18;;;;;;;18.53;100.00;101061.19;5050564;28;20036;-48
2023/09/07 05:56:40;;;;;;;14.80;10.98;;;;;;;18.56;100.00;101059.91;5060717;28;20437;-51
2023/09/07 05:59:05;;;;;;;11.13;9.07;;;;;;;18.53;100.00;101055.81;5053402;28;20045;-48
2023/09/07 06:01:31;;;;;;;11.48;9.82;;;;;;;18.62;100.00;101061.69;5062317;28;20029;-49
2023/09/07 06:03:57;;;;;;;11.38;10.20;;;;;;;18.65;100.00;101062.03;5053374;28;20073;-50
2023/09/07 06:06:22;;;;;;;11.60;10.40;;;;;;;18.70;100.00;101054.09;5060728;28;20024;-49
2023/09/07 06:08:48;;;;;;;13.57;10.38;;;;;;;18.77;100.00;101063.94;5052144;28;20035;-51
2023/09/07 06:11:13;;;;;;;13.23;10.82;;;;;;;18.83;100.00;101066.53;5059651;28;20032;-54
2023/09/07 06:13:38;;;;;;;15.15;9.82;;;;;;;18.78;100.00;101068.28;5050371;28;20021;-50
2023/09/07 06:16:04;;;;;;;12.35;10.05;;;;;;;18.81;100.00;101076.69;5050856;28;20028;-49
2023/09/07 06:18:29;;;;;;;12.23;10.05;;;;;;;18.83;100.00;101079.97;5053994;28;20211;-49
2023/09/07 06:20:54;;;;;;;13.60;10.70;;;;;;;18.88;100.00;101077.41;5057813;28;20147;-50
2023/09/07 06:23:20;;;;;;;15.98;10.00;;;;;;;18.99;100.00;101085.72;5050907;28;20497;-50
2023/09/07 06:25:45;;;;;;;13.43;9.73;;;;;;;19.13;100.00;101079.91;5053692;28;20060;-48
2023/09/07 06:28:10;;;;;;;13.40;10.95;;;;;;;19.25;100.00;101085.25;5052196;28;20119;-52
2023/09/07 06:30:35;;;;;;;16.80;10.90;;;;;;;19.34;100.00;101089.25;5052178;28;20044;-52
2023/09/07 06:33:01;;;;;;;14.05;10.98;;;;;;;19.39;100.00;101091.22;5051229;28;20028;-49
2023/09/07 06:35:26;;;;;;;12.23;9.25;;;;;;;19.42;100.00;101089.94;5050459;28;20042;-48
2023/09/07 06:37:51;;;;;;;12.40;9.18;;;;;;;19.32;100.00;101093.22;5058739;28;20075;-48
2023/09/07 06:40:17;;;;;;;15.35;9.93;;;;;;;19.33;100.00;101098.34;5050964;28;20130;-49
2023/09/07 06:42:43;;;;;;;13.05;10.38;;;;;;;19.43;100.00;101097.75;5056443;28;20024;-47
2023/09/07 06:45:09;;;;;;;12.20;9.75;;;;;;;19.58;100.00;101099.97;5043615;28;20492;-51
2023/09/07 06:47:35;;;;;;;15.73;9.77;;;;;;;19.77;100.00;101095.28;5054283;28;20024;-51
2023/09/07 06:50:02;;;;;;;11.13;9.15;;;;;;;19.88;100.00;101093.63;5051398;28;20461;-50
2023/09/07 06:52:27;;;;;;;11.32;9.60;;;;;;;20.01;100.00;101090.69;5050527;28;20025;-48
2023/09/07 06:54:53;;;;;;;15.93;10.32;;;;;;;20.11;100.00;101090.91;5049293;28;20060;-50
2023/09/07 06:57:19;;;;;;;16.77;9.25;;;;;;;20.15;100.00;101094.72;5043615;28;20280;-48
2023/09/07 06:59:44;;;;;;;17.20;11.68;;;;;;;20.31;100.00;101090.44;5046193;28;20064;-49
2023/09/07 07:02:10;;;;;;;16.77;11.23;;;;;;;20.49;100.00;101097.50;5066633;28;20093;-49
2023/09/07 07:04:35;;;;;;;19.95;13.75;;;;;;;20.70;100.00;101093.31;5053834;28;20024;-50
2023/09/07 07:07:03;;;;;;;13.68;10.93;;;;;;;20.94;100.00;101090.50;5060784;28;20033;-48
2023/09/07 07:09:32;;;;;;;13.70;10.90;;;;;;;21.08;100.00;101086.41;5060740;28;20040;-52
2023/09/07 07:12:01;;;;;;;14.30;11.00;;;;;;;21.18;100.00;101075.75;5050261;28;20044;-51
2023/09/07 07:14:27;;;;;;;12.82;11.10;;;;;;;21.41;100.00;101073.97;5053382;28;20032;-47
2023/09/07 07:16:52;;;;;;;15.02;11.48;;;;;;;21.69;100.00;101070.28;5052083;28;20024;-51
2023/09/07 07:19:17;;;;;;;12.93;11.02;;;;;;;21.92;100.00;101064.63;5050077;28;20483;-47
2023/09/07 07:21:43;;;;;;;14.35;11.77;;;;;;;22.13;100.00;101065.66;5056359;28;20417;-50
2023/09/07 07:24:08;;;;;;;10.80;8.85;;;;;;;22.27;100.00;101058.00;5052450;28;20064;-52
2023/09/07 07:26:34;;;;;;;12.30;9.32;;;;;;;22.50;100.00;101054.16;5055460;28;20043;-54
2023/09/07 07:28:59;;;;;;;18.60;12.65;;;;;;;22.65;100.00;101050.78;5046203;28;20025;-51
2023/09/07 07:31:25;;;;;;;15.38;11.07;;;;;;;22.81;100.00;101052.53;5058918;28;20141;-53
2023/09/07 07:33:50;;;;;;;11.07;9.73;;;;;;;22.86;100.00;101052.56;5046526;28;20037;-50
2023/09/07 07:36:16;;;;;;;11.68;9.63;;;;;;;23.02;100.00;101055.41;5059481;28;20032;-51
2023/09/07 07:38:41;;;;;;;14.77;10.90;;;;;;;23.15;100.00;101051.44;5046188;28;20496;-52
2023/09/07 07:41:06;;;;;;;16.58;10.27;;;;;;;23.22;100.00;101046.63;5060465;28;20064;-50
2023/09/07 07:43:33;;;;;;;13.43;8.13;;;;;;;23.21;100.00;101045.81;5052733;28;20028;-52
2023/09/07 07:45:59;;;;;;;10.57;9.20;;;;;;;23.38;100.00;101047.53;5053212;28;20031;-50
2023/09/07 07:48:24;;;;;;;11.32;9.40;;;;;;;23.42;100.00;101054.06;5056689;28;20377;-52
2023/09/07 07:50:50;;;;;;;12.68;8.38;;;;;;;23.46;100.00;101044.31;5056391;28;20217;-46
2023/09/07 07:53:15;;;;;;;9.52;7.25;;;;;;;23.65;100.00;101048.19;5051797;28;21708;-51
2023/09/07 07:55:40;;;;;;;8.85;7.22;;;;;;;23.90;100.00;101046.69;5050244;28;20377;-49
2023/09/07 07:58:09;;;;;;;13.45;8.10;;;;;;;23.91;100.00;101040.19;5062871;28;20064;-47
2023/09/07 08:00:35;;;;;;;11.27;8.32;;;;;;;24.05;100.00;101046.72;5048080;28;20424;-49
2023/09/07 08:03:07;;;;;;;8.80;6.60;;;;;;;24.25;100.00;101039.72;5046312;28;20029;-52
2023/09/07 08:05:33;;;;;;;8.70;7.28;;;;;;;24.28;100.00;101042.69;5051496;28;20032;-51
2023/09/07 08:07:59;;;;;;;9.43;7.70;;;;;;;24.32;100.00;101043.81;5052935;28;20449;-51
2023/09/07 08:10:25;;;;;;;9.77;5.72;;;;;;;24.43;100.00;101047.34;5053230;28;20711;-52
2023/09/07 08:12:54;;;;;;;7.47;6.10;;;;;;;24.58;100.00;101043.84;5047940;28;20036;-52
2023/09/07 08:15:22;;;;;;;7.22;5.32;;;;;;;24.72;100.00;101033.25;5046902;28;20059;-53
2023/09/07 08:17:48;;;;;;;8.73;5.35;;;;;;;24.92;100.00;101038.66;5049675;28;20043;-52
2023/09/07 08:20:13;;;;;;;5.95;5.07;;;;;;;24.98;100.00;101031.34;5047903;28;20032;-50
2023/09/07 08:22:41;;;;;;;8.60;5.63;;;;;;;25.08;100.00;101031.31;5047843;28;20108;-50
2023/09/07 08:25:07;;;;;;;6.70;5.68;;;;;;;25.17;100.00;101018.84;5046227;28;20039;-47
2023/09/07 08:27:32;;;;;;;6.95;4.60;;;;;;;25.37;100.00;101017.16;5056441;28;20039;-49
2023/09/07 08:29:59;;;;;;;6.97;5.25;;;;;;;25.49;100.00;101025.00;5046010;28;20441;-49
2023/09/07 08:32:24;;;;;;;6.50;5.20;;;;;;;25.52;100.00;101019.00;5053979;28;20154;-52
2023/09/07 08:34:50;;;;;;;7.80;5.82;;;;;;;25.58;100.00;101007.84;5052010;28;20111;-51
2023/09/07 08:37:16;;;;;;;6.75;4.97;;;;;;;25.75;100.00;101007.47;5056009;28;20036;-50
2023/09/07 08:39:41;;;;;;;6.28;3.85;;;;;;;25.96;100.00;101005.47;5053535;28;20024;-50
2023/09/07 08:42:07;;;;;;;7.75;5.15;;;;;;;26.12;100.00;100995.31;5058432;28;20181;-49
2023/09/07 08:44:33;;;;;;;5.15;4.65;;;;;;;26.24;100.00;100995.78;5054276;28;20171;-52
2023/09/07 08:47:02;;;;;;;9.63;4.90;;;;;;;26.45;100.00;100996.41;5050289;28;20077;-52
2023/09/07 08:49:28;;;;;;;6.75;4.55;;;;;;;26.49;100.00;100989.34;5049654;28;20066;-48
2023/09/07 08:51:54;;;;;;;5.32;4.22;;;;;;;26.61;100.00;100986.25;5048963;28;20033;-50
2023/09/07 08:54:20;;;;;;;5.25;4.75;;;;;;;26.71;100.00;100986.16;5051789;28;20034;-51
2023/09/07 08:56:46;;;;;;;6.03;4.35;;;;;;;26.93;100.00;100988.38;5066284;28;20021;-52
2023/09/07 08:59:12;;;;;;;3.50;3.17;;;;;;;27.04;100.00;100989.09;5048944;28;20419;-54
2023/09/07 09:01:37;;;;;;;5.10;4.60;;;;;;;26.96;100.00;100982.38;5069840;28;20037;-50
2023/09/07 09:04:03;;;;;;;4.07;3.50;;;;;;;27.08;100.00;100981.97;5052373;28;20501;-50
2023/09/07 09:06:29;;;;;;;4.97;3.75;;;;;;;27.17;100.00;100974.81;5050764;28;20157;-50
2023/09/07 09:08:56;;;;;;;3.75;3.45;;;;;;;27.17;100.00;100974.81;5056141;28;20037;-52
2023/09/07 09:11:23;;;;;;;13.40;4.53;;;;;;;27.39;100.00;100971.56;5056338;28;20354;-51
2023/09/07 09:13:50;;;;;;;4.63;3.50;;;;;;;27.69;100.00;100968.69;5054290;28;20113;-50
2023/09/07 09:16:16;;;;;;;4.18;2.88;;;;;;;27.57;100.00;100975.41;5056635;28;20036;-53
2023/09/07 09:18:55;;;;;;;9.45;4.38;;;;;;;27.66;100.00;100970.09;5058032;28;20032;-50
2023/09/07 09:21:21;;;;;;;7.72;2.90;;;;;;;27.94;100.00;100965.63;5057202;28;20036;-49
2023/09/07 09:23:52;;;;;;;2.88;2.60;;;;;;;27.98;100.00;100963.91;5052609;28;20033;-54
2023/09/07 09:26:18;;;;;;;7.40;2.97;;;;;;;28.23;100.00;100973.63;5054730;28;20027;-49
2023/09/07 09:28:47;;;;;;;4.97;2.65;;;;;;;28.39;100.00;100971.44;5055781;28;20025;-49
2023/09/07 09:31:14;;;;;;;3.55;2.72;;;;;;;28.67;100.00;100971.53;5054319;28;20587;-48
2023/09/07 09:33:40;;;;;;;4.18;2.90;;;;;;;28.72;100.00;100965.19;5052791;28;20036;-50
2023/09/07 09:36:07;;;;;;;4.75;2.88;;;;;;;29.01;100.00;100976.59;5053567;28;20029;-50
2023/09/07 09:38:33;;;;;;;12.15;3.28;;;;;;;29.08;100.00;100971.59;5051875;28;20086;-47
2023/09/07 09:40:59;;;;;;;2.28;1.83;;;;;;;29.14;100.00;100964.91;5054759;28;20062;-48
2023/09/07 09:43:28;;;;;;;2.03;1.92;;;;;;;29.24;100.00;100965.81;5054105;28;20044;-52
2023/09/07 09:45:53;;;;;;;3.78;2.80;;;;;;;29.35;100.00;100957.13;5053858;28;20064;-50
2023/09/07 09:48:20;;;;;;;7.07;1.88;;;;;;;29.43;100.00;100962.94;5059708;28;20064;-50
2023/09/07 09:50:49;;;;;;;3.80;2.25;;;;;;;29.54;100.00;100958.91;5053989;28;20031;-53
2023/09/07 09:53:20;;;;;;;3.10;2.33;;;;;;;29.49;100.00;100962.56;5053124;28;20037;-51
2023/09/07 09:55:52;;;;;;;3.03;2.25;;;;;;;29.52;100.00;100955.66;5049500;28;20039;-52
2023/09/07 09:58:17;;;;;;;5.72;2.30;;;;;;;29.74;100.00;100952.19;5051048;28;20152;-52
2023/09/07 10:00:45;;;;;;;2.55;2.10;;;;;;;29.74;100.00;100952.19;5053271;28;20024;-54
2023/09/07 10:03:17;;;;;;;3.05;2.20;;;;;;;29.82;100.00;100948.72;5057737;28;20037;-53
2023/09/07 10:05:45;;;;;;;2.10;1.55;;;;;;;30.02;100.00;100950.16;5053751;28;20032;-49
2023/09/07 10:08:16;;;;;;;7.45;2.63;;;;;;;30.13;100.00;100948.78;5056841;28;20257;-51
2023/09/07 10:10:43;;;;;;;4.95;2.40;;;;;;;30.24;100.00;100940.38;5065253;28;20123;-52
2023/09/07 10:13:08;;;;;;;4.45;1.80;;;;;;;30.48;100.00;100948.22;5052868;28;20090;-51
2023/09/07 10:15:38;;;;;;;2.92;2.70;;;;;;;30.54;100.00;100941.47;5055439;28;20024;-51
2023/09/07 10:18:07;;;;;;;6.55;1.92;;;;;;;30.65;100.00;100937.38;5054242;28;20029;-50
2023/09/07 10:20:55;;;;;;;3.13;1.90;;;;;;;30.84;100.00;100935.19;5057429;28;20041;-47
2023/09/07 10:23:20;;;;;;;2.33;2.13;;;;;;;31.02;100.00;100938.81;5051818;28;20129;-49
2023/09/07 10:25:51;;;;;;;4.53;2.83;;;;;;;30.97;100.00;100938.94;5055871;28;20103;-51
2023/09/07 10:28:25;;;;;;;1.67;1.30;;;;;;;31.11;100.00;100930.63;5056210;28;20040;-52
2023/09/07 10:31:03;;;;;;;3.03;1.92;;;;;;;31.21;100.00;100932.22;5055874;28;20285;-54
2023/09/07 10:33:29;;;;;;;3.35;2.42;;;;;;;31.19;100.00;100935.31;5056379;28;20036;-53
2023/09/07 10:35:54;;;;;;;5.50;2.40;;;;;;;31.31;100.00;100926.44;5052954;28;20025;-53
2023/09/07 10:38:20;;;;;;;4.85;1.95;;;;;;;31.42;100.00;100927.81;5045099;28;20592;-50
2023/09/07 10:40:48;;;;;;;2.30;1.50;;;;;;;31.51;100.00;100925.06;5048128;28;20030;-47
2023/09/07 10:43:13;;;;;;;2.65;1.63;;;;;;;31.63;100.00;100927.97;5051152;28;20033;-51
2023/09/07 10:45:39;;;;;;;2.40;2.20;;;;;;;31.75;100.00;100923.75;5053309;28;20059;-53
2023/09/07 10:48:06;;;;;;;2.33;1.95;;;;;;;31.76;99.29;100914.44;5056323;28;20086;-50
2023/09/07 10:50:42;;;;;;;2.42;1.73;;;;;;;31.88;94.42;100909.06;5053362;28;20031;-48
2023/09/07 10:53:07;;;;;;;4.97;1.88;;;;;;;31.91;94.96;100916.66;5054003;28;20440;-51
2023/09/07 10:55:39;;;;;;;7.47;1.90;;;;;;;31.89;93.60;100908.75;5061332;28;20028;-54
2023/09/07 10:58:05;;;;;;;2.22;1.50;;;;;;;31.88;94.11;100911.81;5059710;28;20363;-51
2023/09/07 11:00:30;;;;;;;2.95;1.85;;;;;;;32.22;92.84;100911.00;5054554;28;20058;-51
2023/09/07 11:02:56;;;;;;;3.55;2.13;;;;;;;32.30;90.65;100903.88;5049661;28;20359;-52
2023/09/07 11:05:21;;;;;;;4.50;2.13;;;;;;;32.37;91.04;100902.22;5050397;28;20037;-53
2023/09/07 11:07:46;;;;;;;4.95;1.85;;;;;;;32.53;91.40;100899.78;5060538;28;20025;-49
2023/09/07 11:10:12;;;;;;;9.00;2.53;;;;;;;32.69;90.47;100908.25;5051592;28;20508;-50